Wayne, Oklahoma
Current Conditions -  °F | °C
As of 6:15 AM on Sunday 25 Jan 2015 (Local Time) from KPVJ Reporting Station
Clear Clear  
Wind Chill: 40°   Ceiling: Unl
Heat Index: 46°   Visibility: 10mi
Dew Point: 35°   Wind: 13mph
Humidity: 65%   Direction: 300°WNW
Pressure: 29.94"   Gusts: NA
Location:  34.92°N, 97.31°W
Report Text: KPVJ 251215Z AUTO 30011KT 10SM CLR 08/02 A2994 RMK AO2 T00760015
Loading
Personal Weather Stations






























Interactive Weather Map New forecast layout! Learn more

10-Day Weather Forecast

Advertisements
Track Severe Weather on mobile